createdAt,value
2023-04-18T00:03:10.612Z,20.45
2023-04-18T00:05:37.936Z,23.63
2023-04-18T00:08:05.700Z,16.50
2023-04-18T00:10:32.798Z,18.00
2023-04-18T00:13:00.447Z,19.85
2023-04-18T00:15:29.165Z,18.58
2023-04-18T00:17:57.999Z,17.42
2023-04-18T00:20:26.305Z,16.58
2023-04-18T00:22:53.424Z,17.20
2023-04-18T00:25:20.004Z,20.30
2023-04-18T00:27:46.735Z,23.20
2023-04-18T00:30:13.670Z,21.60
2023-04-18T00:32:47.703Z,18.25
2023-04-18T00:35:14.186Z,15.50
2023-04-18T00:37:40.648Z,15.27
2023-04-18T00:40:07.699Z,16.15
2023-04-18T00:42:43.732Z,14.00
2023-04-18T00:45:10.599Z,15.02
2023-04-18T00:47:37.224Z,16.38
2023-04-18T00:50:04.073Z,13.10
2023-04-18T00:52:58.349Z,13.70
2023-04-18T00:55:24.963Z,13.45
2023-04-18T00:57:52.058Z,15.02
2023-04-18T01:00:18.938Z,16.55
2023-04-18T01:02:54.120Z,16.52
2023-04-18T01:05:21.515Z,16.85
2023-04-18T01:07:48.800Z,15.77
2023-04-18T01:10:15.474Z,15.73
2023-04-18T01:12:49.842Z,15.02
2023-04-18T01:15:16.297Z,16.20
2023-04-18T01:17:43.616Z,15.20
2023-04-18T01:20:10.408Z,17.92
2023-04-18T01:22:41.301Z,14.95
2023-04-18T01:25:08.911Z,15.65
2023-04-18T01:27:35.627Z,16.35
2023-04-18T01:30:02.329Z,13.70
2023-04-18T01:32:36.230Z,14.57
2023-04-18T01:35:02.857Z,13.80
2023-04-18T01:37:31.739Z,16.23
2023-04-18T01:39:58.435Z,13.80
2023-04-18T01:42:26.142Z,14.88
2023-04-18T01:44:52.563Z,13.02
2023-04-18T01:47:19.080Z,11.40
2023-04-18T01:49:48.155Z,15.00
2023-04-18T01:52:28.052Z,12.82
2023-04-18T01:54:54.523Z,14.35
2023-04-18T01:57:21.046Z,15.00
2023-04-18T01:59:47.468Z,14.75
2023-04-18T02:02:14.210Z,14.50
2023-04-18T02:04:40.855Z,13.02
2023-04-18T02:07:07.279Z,17.35
2023-04-18T02:09:33.695Z,13.05
2023-04-18T02:12:02.539Z,13.10
2023-04-18T02:14:32.202Z,15.52
2023-04-18T02:16:59.657Z,13.32
2023-04-18T02:19:26.147Z,14.07
2023-04-18T02:21:53.056Z,15.38
2023-04-18T02:24:19.399Z,14.10
2023-04-18T02:26:45.869Z,14.65
2023-04-18T02:29:12.456Z,13.38
2023-04-18T02:31:42.032Z,13.70
2023-04-18T02:34:08.662Z,13.50
2023-04-18T02:36:35.208Z,15.73
2023-04-18T02:39:01.788Z,13.48
2023-04-18T02:41:28.396Z,14.10
2023-04-18T02:44:10.398Z,13.80
2023-04-18T02:46:36.759Z,14.15
2023-04-18T02:49:03.422Z,13.05
2023-04-18T02:51:29.852Z,14.43
2023-04-18T02:54:00.509Z,13.93
2023-04-18T02:56:26.977Z,13.02
2023-04-18T02:58:53.512Z,12.70
2023-04-18T03:01:19.975Z,14.18
2023-04-18T03:03:59.937Z,15.27
2023-04-18T03:06:27.212Z,12.45
2023-04-18T03:08:55.206Z,16.23
2023-04-18T03:11:22.523Z,13.98
2023-04-18T03:14:01.562Z,14.15
2023-04-18T03:16:28.234Z,14.55
2023-04-18T03:18:54.604Z,14.30
2023-04-18T03:21:20.919Z,13.52
2023-04-18T03:23:49.650Z,17.38
2023-04-18T03:26:16.160Z,12.57
2023-04-18T03:28:42.606Z,14.75
2023-04-18T03:31:09.183Z,14.40
2023-04-18T03:33:39.316Z,14.40
2023-04-18T03:36:06.270Z,13.02
2023-04-18T03:38:32.708Z,13.80
2023-04-18T03:40:59.120Z,15.52
2023-04-18T03:43:58.858Z,15.93
2023-04-18T03:46:25.327Z,16.00
2023-04-18T03:48:51.849Z,15.18
2023-04-18T03:51:18.465Z,14.63
2023-04-18T03:54:01.548Z,17.02
2023-04-18T03:56:28.017Z,15.05
2023-04-18T03:58:54.391Z,15.40
2023-04-18T04:01:21.635Z,14.35
2023-04-18T04:04:12.199Z,18.08
2023-04-18T04:06:39.213Z,17.75
2023-04-18T04:09:05.638Z,14.80
2023-04-18T04:11:32.050Z,15.38
2023-04-18T04:13:58.506Z,14.38
2023-04-18T04:16:25.075Z,14.88
2023-04-18T04:18:51.533Z,13.90
2023-04-18T04:21:20.081Z,13.82
2023-04-18T04:23:49.912Z,15.75
2023-04-18T04:26:16.678Z,16.77
2023-04-18T04:28:43.509Z,16.20
2023-04-18T04:31:10.469Z,15.90
2023-04-18T04:33:46.588Z,16.95
2023-04-18T04:36:16.716Z,15.23
2023-04-18T04:38:45.005Z,16.00
2023-04-18T04:41:11.762Z,15.73
2023-04-18T04:43:52.346Z,20.13
2023-04-18T04:46:20.281Z,17.95
2023-04-18T04:48:46.950Z,15.35
2023-04-18T04:51:13.332Z,17.88
2023-04-18T04:54:11.229Z,18.92
2023-04-18T04:56:38.029Z,17.25
2023-04-18T04:59:04.486Z,16.88
2023-04-18T05:01:30.972Z,17.88
2023-04-18T05:03:57.722Z,16.38
2023-04-18T05:06:24.668Z,14.65
2023-04-18T05:08:51.386Z,17.42
2023-04-18T05:11:18.172Z,17.27
2023-04-18T05:13:46.027Z,16.85
2023-04-18T05:16:12.472Z,15.02
2023-04-18T05:18:40.374Z,18.05
2023-04-18T05:21:07.502Z,14.93
2023-04-18T05:23:40.465Z,16.95
2023-04-18T05:26:07.081Z,21.95
2023-04-18T05:28:33.509Z,17.48
2023-04-18T05:31:02.845Z,17.63
2023-04-18T05:33:31.277Z,16.98
2023-04-18T05:35:58.550Z,17.40
2023-04-18T05:38:25.534Z,16.90
2023-04-18T05:40:52.064Z,13.98
2023-04-18T05:43:23.336Z,18.58
2023-04-18T05:45:52.039Z,16.15
2023-04-18T05:48:18.768Z,17.95
2023-04-18T05:50:45.820Z,17.17
2023-04-18T05:53:17.541Z,15.55
2023-04-18T05:55:46.429Z,16.13
2023-04-18T05:58:13.058Z,18.50
2023-04-18T06:00:39.518Z,14.73
2023-04-18T06:03:16.944Z,14.55
2023-04-18T06:05:43.894Z,16.30
2023-04-18T06:08:10.393Z,17.90
2023-04-18T06:10:38.994Z,18.00
2023-04-18T06:13:10.142Z,14.68
2023-04-18T06:15:36.612Z,15.52
2023-04-18T06:18:03.164Z,17.55
2023-04-18T06:20:29.669Z,14.85
2023-04-18T06:23:19.354Z,16.73
2023-04-18T06:25:45.879Z,16.63
2023-04-18T06:28:12.329Z,17.33
2023-04-18T06:30:38.705Z,16.58
2023-04-18T06:33:10.328Z,15.63
2023-04-18T06:35:36.902Z,14.27
2023-04-18T06:38:03.660Z,17.60
2023-04-18T06:40:30.158Z,16.00
2023-04-18T06:42:59.082Z,14.05
2023-04-18T06:45:25.702Z,16.92
2023-04-18T06:47:53.127Z,16.27
2023-04-18T06:50:19.664Z,17.55
2023-04-18T06:52:48.280Z,17.75
2023-04-18T06:55:14.827Z,15.65
2023-04-18T06:57:42.480Z,15.85
2023-04-18T07:00:10.335Z,16.10
2023-04-18T07:02:38.627Z,15.60
2023-04-18T07:05:06.226Z,15.40
2023-04-18T07:07:33.585Z,14.52
2023-04-18T07:10:00.625Z,13.93
2023-04-18T07:12:34.254Z,14.90
2023-04-18T07:15:00.852Z,16.02
2023-04-18T07:17:27.381Z,15.32
2023-04-18T07:19:54.047Z,16.73
2023-04-18T07:22:21.630Z,15.50
2023-04-18T07:24:48.031Z,13.85
2023-04-18T07:27:15.238Z,12.95
2023-04-18T07:29:41.679Z,13.38
2023-04-18T07:32:08.771Z,14.85
2023-04-18T07:34:36.328Z,13.00
2023-04-18T07:37:03.588Z,15.88
2023-04-18T07:39:31.896Z,14.73
2023-04-18T07:41:58.896Z,14.27
2023-04-18T07:44:25.433Z,13.95
2023-04-18T07:46:52.208Z,14.43
2023-04-18T07:49:18.864Z,14.88
2023-04-18T07:51:45.405Z,15.93
2023-04-18T07:54:11.843Z,13.02
2023-04-18T07:56:38.414Z,13.70
2023-04-18T07:59:05.157Z,12.13
2023-04-18T08:01:31.813Z,11.93
2023-04-18T08:04:01.770Z,13.85
2023-04-18T08:06:29.101Z,11.13
2023-04-18T08:08:55.744Z,13.25
2023-04-18T08:11:22.281Z,12.75
2023-04-18T08:13:48.976Z,13.77
2023-04-18T08:16:17.518Z,11.85
2023-04-18T08:18:44.441Z,12.25
2023-04-18T08:21:11.013Z,12.40
2023-04-18T08:23:37.749Z,12.63
2023-04-18T08:26:04.367Z,14.30
2023-04-18T08:28:31.045Z,13.63
2023-04-18T08:30:57.540Z,11.00
2023-04-18T08:33:24.585Z,11.48
2023-04-18T08:35:51.559Z,11.55
2023-04-18T08:38:19.180Z,13.10
2023-04-18T08:40:46.425Z,11.82
2023-04-18T08:43:15.039Z,11.10
2023-04-18T08:45:45.823Z,11.50
2023-04-18T08:50:44.038Z,11.98
2023-04-18T08:53:11.109Z,12.55
2023-04-18T08:55:37.777Z,12.13
2023-04-18T08:58:07.032Z,11.70
2023-04-18T09:00:34.177Z,13.35
2023-04-18T09:03:03.790Z,9.63
2023-04-18T09:05:30.699Z,11.27
2023-04-18T09:07:57.424Z,8.48
2023-04-18T09:10:29.525Z,8.88
2023-04-18T09:12:57.684Z,9.85
2023-04-18T09:15:27.268Z,11.10
2023-04-18T09:17:56.356Z,10.23
2023-04-18T09:20:43.988Z,10.38
2023-04-18T09:23:14.844Z,9.75
2023-04-18T09:25:44.550Z,8.93
2023-04-18T09:28:29.093Z,11.40
2023-04-18T09:30:58.120Z,11.95
2023-04-18T09:33:32.654Z,10.40
2023-04-18T09:36:22.116Z,12.15
2023-04-18T09:41:19.938Z,13.32
2023-04-18T09:43:47.994Z,13.43
2023-04-18T09:46:17.516Z,11.85
2023-04-18T09:48:44.514Z,9.48
2023-04-18T09:51:14.888Z,10.38
2023-04-18T09:53:45.089Z,10.07
2023-04-18T09:56:26.125Z,9.82
2023-04-18T09:58:57.151Z,10.18
2023-04-18T10:01:28.431Z,8.90
2023-04-18T10:03:57.204Z,9.05
2023-04-18T10:06:27.350Z,8.43
2023-04-18T10:08:54.783Z,8.60
2023-04-18T10:11:22.035Z,8.13
2023-04-18T10:13:53.688Z,9.35
2023-04-18T10:16:20.851Z,10.00
2023-04-18T10:18:49.467Z,8.55
2023-04-18T10:21:16.009Z,8.77
2023-04-18T10:23:42.636Z,8.45
2023-04-18T10:26:10.549Z,7.65
2023-04-18T10:28:57.384Z,8.48
2023-04-18T10:31:28.988Z,8.27
2023-04-18T10:34:05.202Z,8.65
2023-04-18T10:39:21.397Z,9.85
2023-04-18T10:41:51.707Z,8.27
2023-04-18T10:44:23.220Z,8.43
2023-04-18T10:46:53.284Z,7.63
2023-04-18T10:49:28.957Z,9.13
2023-04-18T10:54:37.694Z,10.93
2023-04-18T10:57:05.585Z,8.80
2023-04-18T10:59:33.715Z,9.25
2023-04-18T11:02:06.387Z,9.07
2023-04-18T11:04:32.990Z,8.07
2023-04-18T11:06:59.831Z,8.65
2023-04-18T11:09:26.480Z,7.90
2023-04-18T11:12:08.595Z,10.30
2023-04-18T11:14:45.542Z,10.38
2023-04-18T11:20:15.823Z,9.95
2023-04-18T11:22:55.523Z,9.77
2023-04-18T11:25:29.028Z,13.07
2023-04-18T11:27:59.333Z,9.65
2023-04-18T11:30:26.053Z,9.65
2023-04-18T11:32:54.140Z,10.73
2023-04-18T11:35:20.780Z,11.07
2023-04-18T11:37:49.865Z,12.80
2023-04-18T11:40:16.568Z,11.38
2023-04-18T11:42:43.235Z,13.18
2023-04-18T11:45:14.512Z,12.70
2023-04-18T11:47:46.550Z,10.98
2023-04-18T11:50:13.992Z,11.23
2023-04-18T11:52:42.645Z,11.23
2023-04-18T11:55:24.899Z,11.57
2023-04-18T11:57:59.147Z,12.02
2023-04-18T12:00:35.173Z,13.05
2023-04-18T12:03:04.984Z,11.52
2023-04-18T12:05:33.672Z,13.90
2023-04-18T12:08:11.463Z,11.93
2023-04-18T12:10:45.082Z,11.35
2023-04-18T12:13:11.781Z,12.10
2023-04-18T12:15:40.603Z,13.02
2023-04-18T12:18:10.040Z,12.88
2023-04-18T12:20:37.762Z,12.30
2023-04-18T12:23:04.980Z,13.38
2023-04-18T12:25:31.920Z,12.98
2023-04-18T12:28:03.936Z,12.90
2023-04-18T12:30:33.363Z,13.48
2023-04-18T12:33:02.542Z,13.15
2023-04-18T12:35:30.592Z,13.27
2023-04-18T12:37:59.223Z,14.93
2023-04-18T12:40:27.115Z,13.68
2023-04-18T12:42:55.051Z,15.20
2023-04-18T12:45:22.919Z,12.88
2023-04-18T12:47:51.229Z,14.10
2023-04-18T12:50:21.768Z,12.48
2023-04-18T12:52:48.891Z,15.20
2023-04-18T12:55:15.886Z,13.05
2023-04-18T12:57:43.235Z,14.55
2023-04-18T13:00:11.184Z,15.13
2023-04-18T13:02:40.296Z,14.52
2023-04-18T13:05:08.666Z,15.27
2023-04-18T13:07:37.711Z,13.98
2023-04-18T13:10:04.931Z,16.05
2023-04-18T13:12:31.605Z,15.73
2023-04-18T13:14:58.260Z,16.38
2023-04-18T13:17:25.011Z,15.80
2023-04-18T13:19:51.977Z,17.33
2023-04-18T13:22:21.804Z,15.85
2023-04-18T13:24:48.361Z,16.00
2023-04-18T13:27:15.211Z,16.55
2023-04-18T13:29:43.365Z,16.08
2023-04-18T13:32:10.091Z,16.20
2023-04-18T13:34:39.810Z,17.40
2023-04-18T13:37:06.624Z,15.00
2023-04-18T13:39:33.732Z,17.63
2023-04-18T13:42:03.118Z,14.75
2023-04-18T13:44:30.944Z,16.13
2023-04-18T13:46:58.001Z,14.65
2023-04-18T13:49:24.724Z,17.88
2023-04-18T13:51:57.529Z,17.08
2023-04-18T13:54:27.442Z,16.48
2023-04-18T13:56:54.669Z,14.50
2023-04-18T13:59:21.251Z,17.83
2023-04-18T14:01:49.259Z,14.98
2023-04-18T14:04:16.779Z,14.98
2023-04-18T14:06:43.543Z,15.65
2023-04-18T14:09:10.048Z,13.70
2023-04-18T14:11:36.618Z,14.63
2023-04-18T14:14:03.477Z,14.40
2023-04-18T14:16:32.562Z,14.50
2023-04-18T14:19:01.077Z,15.45
2023-04-18T14:21:27.902Z,12.82
2023-04-18T14:23:55.324Z,15.20
2023-04-18T14:26:22.479Z,18.92
2023-04-18T14:28:49.049Z,15.65
2023-04-18T14:31:16.347Z,16.83
2023-04-18T14:33:43.523Z,17.15
2023-04-18T14:36:10.305Z,16.30
2023-04-18T14:38:36.831Z,15.45
2023-04-18T14:41:06.688Z,14.50
2023-04-18T14:43:33.264Z,14.40
2023-04-18T14:46:00.002Z,16.95
2023-04-18T14:48:27.250Z,15.18
2023-04-18T14:50:58.138Z,14.75
2023-04-18T14:53:26.555Z,13.80
2023-04-18T14:55:53.097Z,14.43
2023-04-18T14:58:22.102Z,14.70
2023-04-18T15:00:49.216Z,15.30
2023-04-18T15:03:16.889Z,14.60
2023-04-18T15:05:46.439Z,13.82
2023-04-18T15:08:14.528Z,12.63
2023-04-18T15:10:46.612Z,13.13
2023-04-18T15:13:13.378Z,13.27
2023-04-18T15:15:39.986Z,12.68
2023-04-18T15:18:08.321Z,12.35
2023-04-18T15:20:37.223Z,12.95
2023-04-18T15:23:03.890Z,13.90
2023-04-18T15:25:31.066Z,14.68
2023-04-18T15:27:58.510Z,13.07
2023-04-18T15:30:25.581Z,13.75
2023-04-18T15:32:53.922Z,11.55
2023-04-18T15:35:20.762Z,14.70
2023-04-18T15:37:47.523Z,12.65
2023-04-18T15:40:16.242Z,11.90
2023-04-18T15:42:43.722Z,13.85
2023-04-18T15:45:11.004Z,11.77
2023-04-18T15:47:38.746Z,12.48
2023-04-18T15:50:06.049Z,13.40
2023-04-18T15:52:32.898Z,11.35
2023-04-18T15:55:00.317Z,13.15
2023-04-18T15:57:27.011Z,12.32
2023-04-18T15:59:54.009Z,12.45
2023-04-18T16:02:20.923Z,13.63
2023-04-18T16:04:47.615Z,10.60
2023-04-18T16:07:14.124Z,11.13
2023-04-18T16:09:40.597Z,11.38
2023-04-18T16:12:08.164Z,10.75
2023-04-18T16:14:34.982Z,11.40
2023-04-18T16:17:01.805Z,11.68
2023-04-18T16:19:28.475Z,11.90
2023-04-18T16:21:55.070Z,11.00
2023-04-18T16:24:21.677Z,10.32
2023-04-18T16:26:48.186Z,10.77
2023-04-18T16:29:14.880Z,12.63
2023-04-18T16:31:42.725Z,11.93
2023-04-18T16:34:09.686Z,11.00
2023-04-18T16:36:36.445Z,11.25
2023-04-18T16:39:03.029Z,11.95
2023-04-18T16:41:29.538Z,11.93
2023-04-18T16:43:56.082Z,11.13
2023-04-18T16:46:22.781Z,12.20
2023-04-18T16:48:50.477Z,11.13
2023-04-18T16:51:18.973Z,12.13
2023-04-18T16:53:46.751Z,11.05
2023-04-18T16:56:13.248Z,11.43
2023-04-18T16:58:39.757Z,10.93
2023-04-18T17:01:08.257Z,11.88
2023-04-18T17:03:35.034Z,13.20
2023-04-18T17:06:01.842Z,11.38
2023-04-18T17:08:28.983Z,13.68
2023-04-18T17:10:55.622Z,12.82
2023-04-18T17:13:26.797Z,11.75
2023-04-18T17:15:53.700Z,11.85
2023-04-18T17:18:20.384Z,11.38
2023-04-18T17:20:47.034Z,12.40
2023-04-18T17:23:14.044Z,11.90
2023-04-18T17:25:40.708Z,11.77
2023-04-18T17:28:07.239Z,14.50
2023-04-18T17:30:33.862Z,12.32
2023-04-18T17:33:00.828Z,11.32
2023-04-18T17:35:27.573Z,12.70
2023-04-18T17:37:54.128Z,11.00
2023-04-18T17:40:20.674Z,12.48
2023-04-18T17:42:48.352Z,11.98
2023-04-18T17:45:14.908Z,12.07
2023-04-18T17:47:41.499Z,12.13
2023-04-18T17:50:08.405Z,12.10
2023-04-18T17:52:35.094Z,12.88
2023-04-18T17:55:01.811Z,12.27
2023-04-18T17:57:30.438Z,12.55
2023-04-18T17:59:57.073Z,11.90
2023-04-18T18:02:24.131Z,12.63
2023-04-18T18:04:51.672Z,12.18
2023-04-18T18:07:18.454Z,12.80
2023-04-18T18:09:47.820Z,13.27
2023-04-18T18:12:14.535Z,11.32
2023-04-18T18:14:41.088Z,11.15
2023-04-18T18:17:07.755Z,13.55
2023-04-18T18:19:36.435Z,12.65
2023-04-18T18:22:03.134Z,13.63
2023-04-18T18:24:29.703Z,14.10
2023-04-18T18:26:56.853Z,14.88
2023-04-18T18:29:23.469Z,14.27
2023-04-18T18:31:50.337Z,13.35
2023-04-18T18:34:17.094Z,12.27
2023-04-18T18:36:43.646Z,12.75
2023-04-18T18:39:11.182Z,17.58
2023-04-18T18:41:37.894Z,13.55
2023-04-18T18:44:04.549Z,12.77
2023-04-18T18:46:31.217Z,15.35
2023-04-18T18:48:57.791Z,13.48
2023-04-18T18:51:24.340Z,14.00
2023-04-18T18:53:51.939Z,12.68
2023-04-18T18:56:18.420Z,14.63
2023-04-18T18:58:44.934Z,14.13
2023-04-18T19:01:11.664Z,15.10
2023-04-18T19:03:39.634Z,16.83
2023-04-18T19:06:07.405Z,16.17
2023-04-18T19:08:34.288Z,14.10
2023-04-18T19:11:00.962Z,13.52
2023-04-18T19:13:27.701Z,14.43
2023-04-18T19:15:54.370Z,15.27
2023-04-18T19:18:21.453Z,13.43
2023-04-18T19:20:50.285Z,13.82
2023-04-18T19:23:19.753Z,12.13
2023-04-18T19:25:47.097Z,12.57
2023-04-18T19:28:14.450Z,12.10
2023-04-18T19:30:42.271Z,11.95
2023-04-18T19:33:09.070Z,12.55
2023-04-18T19:35:37.958Z,15.55
2023-04-18T19:38:04.789Z,11.98
2023-04-18T19:40:31.349Z,11.05
2023-04-18T19:42:58.329Z,13.32
2023-04-18T19:45:24.941Z,10.52
2023-04-18T19:47:51.748Z,11.75
2023-04-18T19:50:18.502Z,10.10
2023-04-18T19:52:45.383Z,11.00
2023-04-18T19:55:12.058Z,11.73
2023-04-18T19:57:40.080Z,12.50
2023-04-18T20:00:11.266Z,11.95
2023-04-18T20:02:38.506Z,11.27
2023-04-18T20:05:06.421Z,10.75
2023-04-18T20:07:33.625Z,11.68
2023-04-18T20:10:00.681Z,11.15
2023-04-18T20:12:27.675Z,11.75
2023-04-18T20:14:55.176Z,11.05
2023-04-18T20:17:21.765Z,11.00
2023-04-18T20:19:49.832Z,10.98
2023-04-18T20:22:17.175Z,10.93
2023-04-18T20:24:44.971Z,11.90
2023-04-18T20:27:11.830Z,10.75
2023-04-18T20:29:38.268Z,13.85
2023-04-18T20:32:05.924Z,12.52
2023-04-18T20:34:32.688Z,12.68
2023-04-18T20:37:00.148Z,13.48
2023-04-18T20:39:28.099Z,13.23
2023-04-18T20:41:57.696Z,11.02
2023-04-18T20:44:24.980Z,11.18
2023-04-18T20:46:54.879Z,11.77
2023-04-18T20:49:21.413Z,12.60
2023-04-18T20:51:48.053Z,10.52
2023-04-18T20:54:15.084Z,11.77
2023-04-18T20:56:41.915Z,10.80
2023-04-18T20:59:08.525Z,11.07
2023-04-18T21:01:36.848Z,11.82
2023-04-18T21:04:03.878Z,9.73
2023-04-18T21:06:31.032Z,12.18
2023-04-18T21:08:57.576Z,10.75
2023-04-18T21:11:24.155Z,10.48
2023-04-18T21:13:50.891Z,12.98
2023-04-18T21:16:17.406Z,11.38
2023-04-18T21:18:43.846Z,11.00
2023-04-18T21:21:10.357Z,13.68
2023-04-18T21:23:44.469Z,10.98
2023-04-18T21:26:13.180Z,13.00
2023-04-18T21:29:00.520Z,10.70
2023-04-18T21:31:29.749Z,11.38
2023-04-18T21:33:57.886Z,10.55
2023-04-18T21:36:27.012Z,10.63
2023-04-18T21:38:54.982Z,11.15
2023-04-18T21:41:22.612Z,11.10
2023-04-18T21:43:49.656Z,10.93
2023-04-18T21:46:16.633Z,11.13
2023-04-18T21:48:45.580Z,10.27
2023-04-18T21:51:13.783Z,12.63
2023-04-18T21:53:41.158Z,11.32
2023-04-18T21:56:08.479Z,12.20
2023-04-18T21:58:35.580Z,9.00
2023-04-18T22:01:02.411Z,11.10
2023-04-18T22:03:29.604Z,14.40
2023-04-18T22:05:56.636Z,11.32
2023-04-18T22:08:25.821Z,10.32
2023-04-18T22:10:58.412Z,10.45
2023-04-18T22:13:30.068Z,11.48
2023-04-18T22:15:58.367Z,9.48
2023-04-18T22:18:25.234Z,10.13
2023-04-18T22:20:53.767Z,10.50
2023-04-18T22:23:20.748Z,10.63
2023-04-18T22:25:47.496Z,14.63
2023-04-18T22:28:14.049Z,11.35
2023-04-18T22:30:40.790Z,10.93
2023-04-18T22:33:08.372Z,11.38
2023-04-18T22:35:34.957Z,12.57
2023-04-18T22:38:01.342Z,11.27
2023-04-18T22:40:27.922Z,12.25
2023-04-18T22:42:54.542Z,13.95
2023-04-18T22:45:21.123Z,9.93
2023-04-18T22:47:47.779Z,11.32
2023-04-18T22:50:15.095Z,12.02
2023-04-18T22:52:41.790Z,11.93
2023-04-18T22:55:08.906Z,11.23
2023-04-18T22:57:35.509Z,11.23
2023-04-18T23:00:02.319Z,11.88
2023-04-18T23:02:29.043Z,10.38
2023-04-18T23:04:58.354Z,11.00
2023-04-18T23:07:24.852Z,13.18
2023-04-18T23:09:52.331Z,11.55
2023-04-18T23:12:19.127Z,10.38
2023-04-18T23:14:45.938Z,10.73
2023-04-18T23:17:12.418Z,10.45
2023-04-18T23:19:39.016Z,10.27
2023-04-18T23:22:05.913Z,10.85
2023-04-18T23:24:32.413Z,10.82
2023-04-18T23:26:58.976Z,10.50
2023-04-18T23:29:25.508Z,10.77
2023-04-18T23:31:52.261Z,10.48
2023-04-18T23:34:18.882Z,11.52
2023-04-18T23:36:45.696Z,13.80
2023-04-18T23:39:12.290Z,10.85
2023-04-18T23:41:38.757Z,10.90
2023-04-18T23:44:05.754Z,11.52
2023-04-18T23:46:32.969Z,11.45
2023-04-18T23:49:00.858Z,13.88
2023-04-18T23:51:28.108Z,12.25
2023-04-18T23:53:54.646Z,13.60
2023-04-18T23:56:23.313Z,11.70
2023-04-18T23:58:50.216Z,16.58
